Time;durP1;ratioP1;P1;durP2;ratioP2;P2;SDS_P1;SDS_P2;PMS_P1;PMS_P2;Temp;Humidity;BMP_temperature;BMP_pressure;BME280_temperature;BME280_humidity;BME280_pressure;Samples;Min_cycle;Max_cycle;Signal;HPM_P1;HPM_P2
2022/07/29 00:00:08;;;;;;;2.90;0.68;;;13.30;99.90;;;;;;5006956;28;20069;-36
2022/07/29 00:02:34;;;;;;;5.60;0.90;;;12.90;99.90;;;;;;5006381;28;20045;-36
2022/07/29 00:05:00;;;;;;;4.80;1.05;;;13.10;99.90;;;;;;5006559;28;20048;-36
2022/07/29 00:07:26;;;;;;;3.75;1.00;;;13.30;99.90;;;;;;5005324;28;20517;-36
2022/07/29 00:09:52;;;;;;;2.22;1.15;;;13.30;99.90;;;;;;5006034;28;20054;-36
2022/07/29 00:12:22;;;;;;;1.98;1.00;;;13.20;99.90;;;;;;5006682;28;20567;-36
2022/07/29 00:14:48;;;;;;;2.17;0.88;;;13.10;99.90;;;;;;5006385;28;20076;-36
2022/07/29 00:17:13;;;;;;;2.63;0.80;;;12.90;99.90;;;;;;5006987;28;20045;-36
2022/07/29 00:19:39;;;;;;;1.92;1.00;;;13.30;99.90;;;;;;5006933;28;20046;-36
2022/07/29 00:22:04;;;;;;;4.00;1.02;;;13.30;99.90;;;;;;5007025;28;20109;-36
2022/07/29 00:24:30;;;;;;;3.17;1.10;;;13.20;99.90;;;;;;5006910;28;20101;-36
2022/07/29 00:26:56;;;;;;;3.15;0.73;;;13.50;99.90;;;;;;5006555;28;20467;-35
2022/07/29 00:29:22;;;;;;;2.30;1.10;;;12.90;99.90;;;;;;5007028;28;20487;-36
2022/07/29 00:31:47;;;;;;;2.75;0.90;;;12.90;99.90;;;;;;5006511;28;20371;-36
2022/07/29 00:36:57;;;;;;;3.63;1.10;;;13.30;99.90;;;;;;5006544;28;20052;-36
2022/07/29 00:39:23;;;;;;;3.20;1.00;;;13.40;99.90;;;;;;5006659;28;20468;-36
2022/07/29 00:41:49;;;;;;;6.25;1.25;;;12.90;99.90;;;;;;5006172;28;20045;-36
2022/07/29 00:44:15;;;;;;;2.20;0.88;;;13.20;99.90;;;;;;5006396;28;20060;-36
2022/07/29 00:46:41;;;;;;;2.00;0.73;;;13.30;99.90;;;;;;5005761;28;20049;-36
2022/07/29 00:49:07;;;;;;;3.30;0.95;;;13.40;99.90;;;;;;5005120;28;20452;-36
2022/07/29 00:51:36;;;;;;;5.60;1.77;;;13.40;99.90;;;;;;5006165;28;20045;-36
2022/07/29 00:54:02;;;;;;;3.08;0.90;;;13.00;99.90;;;;;;5005707;28;20484;-36
2022/07/29 00:56:31;;;;;;;4.82;1.02;;;13.00;99.90;;;;;;5006225;28;20050;-36
2022/07/29 00:58:58;;;;;;;4.00;0.93;;;13.40;99.90;;;;;;5006112;28;20164;-36
2022/07/29 01:01:23;;;;;;;5.60;1.70;;;13.40;99.90;;;;;;5007819;28;20045;-36
2022/07/29 01:03:49;;;;;;;2.45;1.00;;;13.30;99.90;;;;;;5010125;28;20046;-36
2022/07/29 01:06:19;;;;;;;2.30;0.80;;;13.20;99.90;;;;;;5009987;28;20415;-36
2022/07/29 01:08:48;;;;;;;2.33;1.20;;;13.60;99.90;;;;;;5010093;28;20158;-36
2022/07/29 01:11:15;;;;;;;2.05;0.77;;;13.10;99.90;;;;;;5009516;28;20062;-36
2022/07/29 01:13:42;;;;;;;2.65;1.05;;;13.30;99.90;;;;;;5009547;28;20054;-36
2022/07/29 01:16:21;;;;;;;2.50;1.00;;;13.50;99.90;;;;;;5009904;28;20119;-36
2022/07/29 01:18:53;;;;;;;3.38;0.98;;;13.20;99.90;;;;;;5009699;28;20045;-36
2022/07/29 01:21:53;;;;;;;6.50;0.90;;;13.60;99.90;;;;;;5009448;28;20042;-36
2022/07/29 01:24:33;;;;;;;3.10;0.88;;;13.20;99.90;;;;;;5017451;28;20050;-36
2022/07/29 01:27:32;;;;;;;2.08;0.70;;;13.20;99.90;;;;;;5009373;28;20045;-36
2022/07/29 01:30:01;;;;;;;2.65;0.93;;;13.30;99.90;;;;;;5009555;28;20056;-36
2022/07/29 01:32:30;;;;;;;3.97;0.88;;;13.70;99.90;;;;;;5009720;28;20060;-36
2022/07/29 01:35:08;;;;;;;3.42;0.80;;;13.30;99.90;;;;;;5009835;28;20056;-36
2022/07/29 01:37:34;;;;;;;4.32;0.80;;;13.30;99.90;;;;;;5009324;28;20052;-36
2022/07/29 01:40:03;;;;;;;2.15;0.68;;;13.30;99.90;;;;;;5008906;28;20046;-36
2022/07/29 01:42:48;;;;;;;5.85;1.00;;;13.30;99.90;;;;;;5009321;28;20455;-36
2022/07/29 01:45:38;;;;;;;2.83;0.82;;;13.30;99.90;;;;;;5009463;28;20368;-36
2022/07/29 01:48:17;;;;;;;3.30;0.88;;;13.30;99.90;;;;;;5008791;28;20042;-36
2022/07/29 01:50:51;;;;;;;1.98;0.55;;;13.30;99.90;;;;;;5008624;28;20175;-36
2022/07/29 01:54:00;;;;;;;4.60;0.88;;;13.30;99.90;;;;;;5008535;28;20092;-36
2022/07/29 01:56:30;;;;;;;1.58;0.63;;;13.40;99.90;;;;;;5007174;28;20081;-36
2022/07/29 01:58:58;;;;;;;4.63;0.75;;;13.70;99.90;;;;;;5009158;28;20498;-36
2022/07/29 02:01:24;;;;;;;2.65;0.63;;;13.40;99.90;;;;;;5008871;28;20091;-36
2022/07/29 02:03:52;;;;;;;4.28;0.85;;;13.70;99.90;;;;;;5007414;28;20472;-36
2022/07/29 02:06:22;;;;;;;4.13;0.98;;;13.40;99.90;;;;;;5008778;28;20759;-36
2022/07/29 02:08:49;;;;;;;3.53;0.90;;;13.60;99.90;;;;;;5008555;28;20583;-36
2022/07/29 02:11:15;;;;;;;3.75;0.70;;;13.60;99.90;;;;;;5008905;28;20381;-36
2022/07/29 02:13:42;;;;;;;3.65;0.80;;;13.70;99.90;;;;;;5008456;28;20037;-36
2022/07/29 02:16:10;;;;;;;5.32;0.85;;;13.30;99.90;;;;;;5008310;28;20415;-36
2022/07/29 02:18:38;;;;;;;4.38;0.80;;;13.40;99.90;;;;;;5007051;28;20400;-36
2022/07/29 02:21:05;;;;;;;3.13;1.13;;;13.80;99.90;;;;;;5008172;28;20045;-36
2022/07/29 02:23:33;;;;;;;3.58;0.90;;;13.20;99.90;;;;;;5008568;28;20038;-36
2022/07/29 02:25:59;;;;;;;3.50;1.10;;;13.50;99.90;;;;;;5008569;28;20184;-36
2022/07/29 02:28:30;;;;;;;5.03;2.45;;;13.20;99.90;;;;;;5008808;28;20113;-36
2022/07/29 02:31:00;;;;;;;4.38;0.85;;;13.50;99.90;;;;;;5008670;28;20049;-36
2022/07/29 02:33:27;;;;;;;2.85;0.90;;;13.70;99.90;;;;;;5008986;28;20046;-36
2022/07/29 02:35:54;;;;;;;5.80;1.00;;;13.40;99.90;;;;;;5007970;28;20164;-36
2022/07/29 02:41:11;;;;;;;2.55;0.80;;;13.10;99.90;;;;;;5007384;28;20537;-36
2022/07/29 02:43:39;;;;;;;2.58;0.80;;;13.40;99.90;;;;;;5007842;28;20037;-36
2022/07/29 02:46:20;;;;;;;4.53;1.08;;;13.20;99.90;;;;;;5007425;28;20510;-36
2022/07/29 02:48:58;;;;;;;4.30;1.00;;;13.00;99.90;;;;;;5008137;28;20459;-36
2022/07/29 02:51:32;;;;;;;4.85;1.20;;;13.60;99.90;;;;;;5008006;28;20042;-36
2022/07/29 02:54:06;;;;;;;6.10;1.75;;;13.30;99.90;;;;;;5007800;28;20050;-36
2022/07/29 02:56:34;;;;;;;3.35;0.70;;;13.00;99.90;;;;;;5007457;28;20528;-36
2022/07/29 02:59:05;;;;;;;4.47;1.05;;;14.10;99.90;;;;;;5007773;28;20384;-36
2022/07/29 03:01:33;;;;;;;2.15;0.77;;;13.40;99.90;;;;;;5008028;28;20049;-36
2022/07/29 03:04:03;;;;;;;2.72;0.80;;;13.00;99.90;;;;;;5007988;28;20561;-36
2022/07/29 03:06:32;;;;;;;4.45;0.65;;;13.10;99.90;;;;;;5008246;28;20042;-36
2022/07/29 03:08:58;;;;;;;6.45;0.90;;;13.40;99.90;;;;;;5007759;28;20377;-36
2022/07/29 03:11:25;;;;;;;5.13;1.30;;;13.50;99.90;;;;;;5007318;28;20508;-36
2022/07/29 03:13:51;;;;;;;5.43;0.90;;;13.20;99.90;;;;;;5007313;28;20515;-36
2022/07/29 03:16:19;;;;;;;5.47;1.00;;;13.50;99.90;;;;;;5007779;28;20045;-36
2022/07/29 03:18:46;;;;;;;2.17;0.88;;;13.40;99.90;;;;;;5007439;28;20057;-36
2022/07/29 03:21:12;;;;;;;3.08;0.50;;;13.10;99.90;;;;;;5007566;28;20041;-36
2022/07/29 03:23:44;;;;;;;6.00;0.80;;;13.10;99.90;;;;;;5006646;28;20510;-36
2022/07/29 03:26:10;;;;;;;2.92;0.98;;;13.00;99.90;;;;;;5007566;28;20046;-36
2022/07/29 03:28:36;;;;;;;2.00;0.88;;;13.10;99.90;;;;;;5006236;28;20576;-36
2022/07/29 03:31:02;;;;;;;7.00;1.15;;;13.50;99.90;;;;;;5007235;28;20136;-36
2022/07/29 03:33:28;;;;;;;4.85;0.80;;;13.60;99.90;;;;;;5005496;28;20049;-36
2022/07/29 03:35:54;;;;;;;2.15;0.77;;;13.40;99.90;;;;;;5007142;28;20053;-36
2022/07/29 03:38:24;;;;;;;3.70;0.68;;;13.50;99.90;;;;;;5007101;28;20038;-36
2022/07/29 03:40:54;;;;;;;2.65;1.13;;;13.60;99.90;;;;;;5007069;28;20746;-36
2022/07/29 03:43:21;;;;;;;5.18;1.40;;;13.10;99.90;;;;;;5007330;28;20042;-36
2022/07/29 03:45:54;;;;;;;3.45;1.08;;;13.10;99.90;;;;;;5007189;28;20046;-36
2022/07/29 03:48:22;;;;;;;3.22;1.17;;;13.40;99.90;;;;;;5007235;28;20533;-36
2022/07/29 03:50:49;;;;;;;4.45;1.20;;;13.00;99.90;;;;;;5007060;28;20053;-36
2022/07/29 03:53:15;;;;;;;1.70;1.00;;;13.10;99.90;;;;;;5005154;28;20054;-36
2022/07/29 03:55:46;;;;;;;3.20;1.42;;;13.10;99.90;;;;;;5006908;28;20077;-36
2022/07/29 03:58:14;;;;;;;3.88;1.00;;;13.10;99.90;;;;;;5005685;28;20369;-36
2022/07/29 04:00:42;;;;;;;2.95;1.30;;;12.50;99.90;;;;;;5007291;28;20070;-36
2022/07/29 04:03:08;;;;;;;4.00;0.85;;;13.30;99.90;;;;;;5007256;28;20349;-36
2022/07/29 04:05:34;;;;;;;7.07;0.98;;;13.40;99.90;;;;;;5007039;28;20042;-36
2022/07/29 04:08:00;;;;;;;3.90;0.88;;;13.10;99.90;;;;;;5006686;28;20048;-36
2022/07/29 04:10:26;;;;;;;3.00;1.13;;;13.20;99.90;;;;;;5006572;28;20054;-36
2022/07/29 04:12:52;;;;;;;2.90;0.90;;;13.10;99.90;;;;;;5006418;28;20061;-36
2022/07/29 04:15:18;;;;;;;5.55;1.05;;;13.90;99.90;;;;;;5006571;28;20495;-36
2022/07/29 04:17:43;;;;;;;3.22;0.80;;;13.10;99.90;;;;;;5006751;28;20044;-36
2022/07/29 04:20:12;;;;;;;3.50;0.60;;;13.10;99.90;;;;;;5006678;28;20053;-36
2022/07/29 04:22:39;;;;;;;5.60;1.27;;;13.10;99.90;;;;;;5006744;28;20045;-36
2022/07/29 04:25:05;;;;;;;4.32;1.13;;;13.10;99.90;;;;;;5006127;28;20491;-36
2022/07/29 04:27:30;;;;;;;2.50;0.73;;;13.10;99.90;;;;;;5004983;28;20108;-36
2022/07/29 04:29:56;;;;;;;5.10;1.15;;;13.00;99.90;;;;;;5006626;28;20050;-36
2022/07/29 04:32:22;;;;;;;4.20;1.30;;;13.40;99.90;;;;;;5006378;28;20053;-36
2022/07/29 04:34:47;;;;;;;6.13;1.17;;;13.30;99.90;;;;;;5007059;28;20053;-36
2022/07/29 04:37:13;;;;;;;2.95;0.90;;;13.10;99.90;;;;;;5010230;28;20044;-36
2022/07/29 04:39:39;;;;;;;4.05;1.10;;;13.40;99.90;;;;;;5010351;28;20125;-36
2022/07/29 04:42:05;;;;;;;3.22;0.90;;;13.10;99.90;;;;;;5010374;28;20049;-36
2022/07/29 04:44:30;;;;;;;3.92;1.48;;;13.10;99.90;;;;;;5010856;28;20120;-36
2022/07/29 04:46:57;;;;;;;2.47;1.10;;;13.60;99.90;;;;;;5010509;28;20103;-36
2022/07/29 04:49:23;;;;;;;3.03;0.85;;;13.20;99.90;;;;;;5009997;28;20443;-36
2022/07/29 04:51:48;;;;;;;5.13;1.25;;;13.20;99.90;;;;;;5010529;28;20391;-36
2022/07/29 04:54:14;;;;;;;5.13;1.00;;;13.80;99.90;;;;;;5010285;28;20045;-36
2022/07/29 04:56:41;;;;;;;4.25;0.80;;;13.70;99.90;;;;;;5010244;28;20103;-36
2022/07/29 04:59:07;;;;;;;5.80;1.42;;;13.80;99.90;;;;;;5010105;28;20056;-36
2022/07/29 05:01:32;;;;;;;5.85;1.40;;;14.00;99.90;;;;;;5010545;28;20137;-36
2022/07/29 05:03:58;;;;;;;3.25;0.90;;;13.90;99.90;;;;;;5009965;28;20410;-36
2022/07/29 05:06:24;;;;;;;3.60;1.33;;;13.50;99.90;;;;;;5008685;28;20468;-36
2022/07/29 05:08:49;;;;;;;4.97;1.00;;;14.00;99.90;;;;;;5010061;28;20128;-36
2022/07/29 05:11:15;;;;;;;5.80;1.15;;;13.50;99.90;;;;;;5009317;28;20054;-36
2022/07/29 05:13:41;;;;;;;2.78;0.90;;;14.20;99.90;;;;;;5009817;28;20053;-36
2022/07/29 05:16:08;;;;;;;6.03;1.30;;;13.80;99.90;;;;;;5009676;28;20555;-36
2022/07/29 05:18:34;;;;;;;3.83;0.60;;;14.30;99.90;;;;;;5010072;28;20472;-36
2022/07/29 05:20:59;;;;;;;3.00;0.93;;;13.90;99.90;;;;;;5008970;28;20098;-36
2022/07/29 05:23:25;;;;;;;5.28;0.93;;;14.50;99.90;;;;;;5009560;28;20446;-36
2022/07/29 05:25:51;;;;;;;2.83;0.63;;;14.00;99.90;;;;;;5010002;28;20049;-36
2022/07/29 05:28:17;;;;;;;4.55;0.70;;;14.60;99.90;;;;;;5009578;28;20077;-36
2022/07/29 05:30:44;;;;;;;3.78;1.23;;;14.60;99.90;;;;;;5009714;28;20418;-36
2022/07/29 05:33:10;;;;;;;7.13;0.95;;;14.20;99.90;;;;;;5009646;28;20045;-36
2022/07/29 05:35:36;;;;;;;2.72;1.00;;;14.20;99.90;;;;;;5009631;28;20068;-36
2022/07/29 05:38:03;;;;;;;2.47;1.00;;;14.20;99.90;;;;;;5009937;28;20101;-36
2022/07/29 05:40:28;;;;;;;2.70;0.90;;;14.90;99.90;;;;;;5009232;28;20601;-36
2022/07/29 05:42:54;;;;;;;5.43;1.05;;;14.30;99.90;;;;;;5009359;28;20054;-36
2022/07/29 05:45:20;;;;;;;3.83;1.10;;;14.40;99.90;;;;;;5008702;28;20145;-36
2022/07/29 05:47:46;;;;;;;2.38;0.63;;;14.40;99.90;;;;;;5008442;28;20042;-36
2022/07/29 05:50:12;;;;;;;3.72;1.10;;;14.40;99.90;;;;;;5009165;28;20127;-36
2022/07/29 05:52:38;;;;;;;3.97;1.02;;;14.40;99.90;;;;;;5008770;28;20727;-36
2022/07/29 05:55:05;;;;;;;2.60;0.90;;;14.50;99.90;;;;;;5008901;28;20069;-36
2022/07/29 05:57:31;;;;;;;4.63;1.05;;;14.50;99.90;;;;;;5008728;28;20060;-36
2022/07/29 05:59:57;;;;;;;2.33;0.80;;;14.80;99.90;;;;;;5008889;28;20496;-36
2022/07/29 06:02:23;;;;;;;2.65;0.85;;;15.00;99.90;;;;;;5007303;28;20170;-36
2022/07/29 06:04:49;;;;;;;4.85;0.93;;;14.90;99.90;;;;;;5008863;28;20172;-36
2022/07/29 06:07:15;;;;;;;3.47;1.23;;;14.60;99.90;;;;;;5008382;28;20045;-36
2022/07/29 06:09:42;;;;;;;4.07;1.33;;;14.60;99.90;;;;;;5009026;28;20045;-36
2022/07/29 06:12:08;;;;;;;4.70;0.93;;;14.60;99.90;;;;;;5009427;28;20045;-36
2022/07/29 06:14:34;;;;;;;5.43;1.15;;;14.60;99.90;;;;;;5009396;28;20180;-36
2022/07/29 06:17:00;;;;;;;3.47;0.82;;;14.70;99.90;;;;;;5009492;28;20057;-36
2022/07/29 06:19:26;;;;;;;5.10;1.30;;;14.70;99.90;;;;;;5009166;28;20046;-36
2022/07/29 06:21:52;;;;;;;4.78;1.60;;;15.20;99.90;;;;;;5009247;28;20049;-36
2022/07/29 06:24:17;;;;;;;5.82;0.95;;;14.90;99.90;;;;;;5008030;28;20042;-36
2022/07/29 06:26:43;;;;;;;2.75;0.90;;;15.20;99.90;;;;;;5008700;28;20503;-36
2022/07/29 06:29:13;;;;;;;3.28;0.85;;;15.30;99.90;;;;;;5008356;28;20052;-36
2022/07/29 06:31:39;;;;;;;3.20;1.05;;;15.10;99.90;;;;;;5008628;28;20199;-36
2022/07/29 06:34:04;;;;;;;3.03;0.80;;;15.60;99.90;;;;;;5008625;28;20535;-36
2022/07/29 06:36:30;;;;;;;3.90;0.98;;;15.50;99.90;;;;;;5008725;28;20396;-36
2022/07/29 06:38:56;;;;;;;7.80;1.20;;;15.60;99.90;;;;;;5008300;28;20092;-36
2022/07/29 06:41:22;;;;;;;4.45;1.13;;;16.00;99.90;;;;;;5006870;28;20057;-36
2022/07/29 06:43:51;;;;;;;4.45;0.80;;;15.80;99.90;;;;;;5008430;28;20050;-36
2022/07/29 06:46:18;;;;;;;5.13;1.15;;;16.20;99.90;;;;;;5008027;28;20050;-36
2022/07/29 06:48:45;;;;;;;7.78;1.02;;;16.00;99.90;;;;;;5007823;28;20052;-36
2022/07/29 06:51:12;;;;;;;8.75;1.55;;;16.10;99.90;;;;;;5007922;28;20050;-36
2022/07/29 06:53:38;;;;;;;5.38;1.42;;;16.00;99.80;;;;;;5007872;28;20050;-36
2022/07/29 06:56:05;;;;;;;4.53;1.20;;;16.00;99.70;;;;;;5006683;28;20388;-36
2022/07/29 06:58:31;;;;;;;3.00;0.85;;;16.10;99.70;;;;;;5006786;28;20042;-36
2022/07/29 07:00:58;;;;;;;3.72;0.75;;;16.00;99.50;;;;;;5008008;28;20046;-36
2022/07/29 07:03:24;;;;;;;3.17;1.00;;;16.10;99.60;;;;;;5007841;28;20064;-37
2022/07/29 07:05:52;;;;;;;3.80;0.52;;;16.20;99.40;;;;;;5007907;28;20053;-36
2022/07/29 07:08:19;;;;;;;3.72;1.10;;;16.00;99.60;;;;;;5007472;28;20108;-36
2022/07/29 07:10:45;;;;;;;3.85;1.20;;;16.10;99.50;;;;;;5006992;28;20070;-37
2022/07/29 07:13:11;;;;;;;3.13;1.08;;;16.30;99.70;;;;;;5007655;28;20050;-37
2022/07/29 07:15:37;;;;;;;5.18;0.95;;;16.20;99.70;;;;;;5007123;28;20045;-37
2022/07/29 07:18:04;;;;;;;3.38;0.80;;;16.40;99.50;;;;;;5007575;28;20052;-37
2022/07/29 07:20:30;;;;;;;4.13;1.00;;;16.40;99.40;;;;;;5006887;28;20038;-37
2022/07/29 07:22:55;;;;;;;3.83;1.00;;;16.50;99.10;;;;;;5007277;28;20415;-37
2022/07/29 07:25:21;;;;;;;3.65;1.10;;;16.60;99.10;;;;;;5005601;28;20046;-37
2022/07/29 07:27:47;;;;;;;3.55;1.00;;;16.80;99.00;;;;;;5007265;28;20053;-37
2022/07/29 07:30:13;;;;;;;6.95;0.88;;;16.90;98.40;;;;;;5007178;28;20042;-37
2022/07/29 07:32:39;;;;;;;2.85;0.80;;;17.10;98.10;;;;;;5006747;28;20046;-37
2022/07/29 07:35:07;;;;;;;3.78;0.60;;;17.20;97.90;;;;;;5006024;28;20045;-37
2022/07/29 07:37:33;;;;;;;3.15;0.98;;;17.30;97.40;;;;;;5007074;28;20045;-37
2022/07/29 07:39:59;;;;;;;3.47;0.82;;;17.30;96.80;;;;;;5007306;28;20124;-37
2022/07/29 07:42:25;;;;;;;4.88;1.00;;;17.40;96.30;;;;;;5007080;28;20136;-37
2022/07/29 07:44:51;;;;;;;4.28;0.90;;;17.50;96.20;;;;;;5007137;28;20124;-37
2022/07/29 07:47:19;;;;;;;3.95;0.88;;;17.50;96.30;;;;;;5006942;28;20034;-37
2022/07/29 07:49:48;;;;;;;4.03;0.85;;;17.60;96.30;;;;;;5007193;28;20073;-37
2022/07/29 07:52:15;;;;;;;5.18;1.30;;;17.60;96.00;;;;;;5007176;28;20037;-37
2022/07/29 07:54:42;;;;;;;2.90;0.90;;;17.70;95.90;;;;;;5006495;28;20459;-37
2022/07/29 07:57:08;;;;;;;3.33;0.93;;;17.90;95.70;;;;;;5007140;28;20041;-37
2022/07/29 07:59:34;;;;;;;2.45;0.85;;;18.10;95.40;;;;;;5006570;28;20389;-37
2022/07/29 08:02:00;;;;;;;3.22;0.82;;;18.30;95.10;;;;;;5006915;28;20377;-37
2022/07/29 08:04:26;;;;;;;3.08;1.00;;;18.50;94.60;;;;;;5006663;28;20045;-37
2022/07/29 08:06:54;;;;;;;5.85;1.00;;;18.80;93.90;;;;;;5006904;28;20099;-37
2022/07/29 08:09:20;;;;;;;4.60;1.10;;;19.10;93.10;;;;;;5006838;28;20060;-37
2022/07/29 08:11:46;;;;;;;3.38;0.90;;;19.30;92.20;;;;;;5006068;28;20098;-37
2022/07/29 08:14:13;;;;;;;4.00;0.90;;;19.50;92.10;;;;;;5006630;28;20093;-37
2022/07/29 08:16:40;;;;;;;4.55;0.98;;;19.50;91.10;;;;;;5006407;28;20046;-37
2022/07/29 08:19:05;;;;;;;3.28;1.33;;;19.60;90.90;;;;;;5006204;28;20049;-37
2022/07/29 08:21:31;;;;;;;3.55;0.82;;;19.50;90.00;;;;;;5006512;28;20052;-37
2022/07/29 08:26:42;;;;;;;5.22;1.17;;;19.60;89.80;;;;;;5006564;28;20108;-37
2022/07/29 08:29:09;;;;;;;3.75;0.80;;;19.60;89.80;;;;;;5006673;28;20050;-37
2022/07/29 08:31:35;;;;;;;3.85;1.00;;;19.70;90.10;;;;;;5006320;28;20088;-37
2022/07/29 08:34:02;;;;;;;3.47;1.00;;;20.00;90.00;;;;;;5006120;28;20050;-37
2022/07/29 08:36:28;;;;;;;5.45;0.80;;;19.60;89.60;;;;;;5006499;28;20042;-37
2022/07/29 08:38:54;;;;;;;2.90;0.95;;;19.50;89.50;;;;;;5006484;28;20041;-37
2022/07/29 08:41:20;;;;;;;3.17;1.13;;;19.40;89.60;;;;;;5006603;28;20050;-37
2022/07/29 08:43:46;;;;;;;2.55;0.80;;;19.20;90.00;;;;;;5006539;28;20101;-37
2022/07/29 08:46:12;;;;;;;6.05;1.55;;;19.20;90.80;;;;;;5006636;28;20491;-37
2022/07/29 08:48:40;;;;;;;4.90;1.10;;;19.20;90.60;;;;;;5006036;28;20104;-37
2022/07/29 08:51:07;;;;;;;8.52;1.00;;;18.80;90.50;;;;;;5006446;28;20073;-37
2022/07/29 08:53:33;;;;;;;8.75;0.95;;;18.60;90.90;;;;;;5006284;28;20125;-37
2022/07/29 08:56:00;;;;;;;6.22;1.40;;;18.40;91.90;;;;;;5006059;28;20580;-37
2022/07/29 08:58:31;;;;;;;2.55;0.95;;;18.00;94.70;;;;;;5006064;28;20511;-37
2022/07/29 09:00:57;;;;;;;5.40;1.50;;;17.60;96.10;;;;;;5006552;28;20136;-37
2022/07/29 09:03:29;;;;;;;4.65;1.40;;;17.30;97.90;;;;;;5006424;28;20233;-37
2022/07/29 09:05:55;;;;;;;3.38;1.35;;;17.20;99.30;;;;;;5006446;28;20144;-37
2022/07/29 09:08:21;;;;;;;3.78;1.65;;;17.10;99.90;;;;;;5006505;28;20574;-37
2022/07/29 09:10:47;;;;;;;3.85;1.73;;;17.20;99.90;;;;;;5005861;28;20145;-37
2022/07/29 09:13:12;;;;;;;6.97;1.75;;;17.40;99.90;;;;;;5005857;28;20634;-37
2022/07/29 09:15:38;;;;;;;6.85;1.52;;;17.60;99.90;;;;;;5005876;28;20045;-37
2022/07/29 09:18:04;;;;;;;4.05;1.20;;;17.90;99.90;;;;;;5006053;28;20103;-37
2022/07/29 09:21:57;;;;;;;7.30;1.25;;;18.10;99.90;;;;;;5005714;28;20176;-37
2022/07/29 09:23:15;;;;;;;6.40;1.35;;;18.30;99.90;;;;;;5008191;28;20061;-37
2022/07/29 09:25:41;;;;;;;6.35;1.02;;;18.50;99.90;;;;;;5009000;28;20046;-37
2022/07/29 09:28:16;;;;;;;5.20;1.00;;;18.80;99.60;;;;;;5009203;28;20092;-38
2022/07/29 09:30:58;;;;;;;5.45;1.15;;;19.20;97.40;;;;;;5009165;28;20057;-38
2022/07/29 09:33:31;;;;;;;6.97;1.23;;;19.60;95.90;;;;;;5009260;28;20488;-37
2022/07/29 09:36:11;;;;;;;4.38;1.13;;;20.00;95.40;;;;;;5009235;28;20038;-37
2022/07/29 09:38:37;;;;;;;2.72;0.75;;;20.60;94.00;;;;;;5009164;28;20042;-37
2022/07/29 09:41:04;;;;;;;7.18;1.42;;;20.90;92.90;;;;;;5008814;28;20530;-37
2022/07/29 09:43:30;;;;;;;6.65;1.25;;;21.30;92.00;;;;;;5008677;28;20049;-37
2022/07/29 09:46:08;;;;;;;3.05;0.85;;;21.60;91.50;;;;;;5008741;28;20057;-37
2022/07/29 09:48:34;;;;;;;3.92;0.90;;;21.90;91.60;;;;;;5008498;28;20046;-37
2022/07/29 09:51:01;;;;;;;3.45;1.00;;;21.90;90.90;;;;;;5009137;28;20105;-38
2022/07/29 09:53:37;;;;;;;5.13;1.30;;;21.90;89.30;;;;;;5009018;28;20421;-38
2022/07/29 09:56:04;;;;;;;6.05;1.60;;;21.60;84.80;;;;;;5007537;28;20049;-37
2022/07/29 09:58:33;;;;;;;6.13;1.17;;;21.50;87.30;;;;;;5008685;28;20064;-38
2022/07/29 10:00:59;;;;;;;3.47;0.90;;;21.40;88.50;;;;;;5009153;28;20119;-37
2022/07/29 10:03:25;;;;;;;3.67;1.30;;;21.50;88.80;;;;;;5007383;28;20045;-37
2022/07/29 10:06:10;;;;;;;5.18;1.40;;;21.50;87.70;;;;;;5008269;28;20042;-38
2022/07/29 10:08:36;;;;;;;6.22;0.93;;;21.70;87.70;;;;;;5008981;28;20067;-37
2022/07/29 10:11:16;;;;;;;3.67;0.75;;;21.80;87.80;;;;;;5008619;28;20492;-37
2022/07/29 10:13:47;;;;;;;4.20;1.40;;;22.10;87.20;;;;;;5008474;28;20407;-37
2022/07/29 10:16:14;;;;;;;4.55;1.20;;;22.20;86.40;;;;;;5009126;28;20062;-37
2022/07/29 10:18:41;;;;;;;2.63;0.70;;;22.40;84.70;;;;;;5008582;28;20500;-38
2022/07/29 10:21:07;;;;;;;7.40;1.10;;;22.20;82.50;;;;;;5008621;28;20049;-37
2022/07/29 10:23:34;;;;;;;4.90;1.38;;;22.20;83.10;;;;;;5008435;28;20049;-38
2022/07/29 10:26:01;;;;;;;4.22;1.50;;;22.20;82.60;;;;;;5008475;28;20050;-37
2022/07/29 10:28:27;;;;;;;5.78;1.10;;;22.20;82.60;;;;;;5008781;28;20100;-37
2022/07/29 10:31:01;;;;;;;3.80;1.17;;;22.30;83.10;;;;;;5006346;28;20050;-38
2022/07/29 10:33:54;;;;;;;5.03;1.05;;;22.50;83.00;;;;;;5008132;28;20045;-38
2022/07/29 10:36:46;;;;;;;3.70;1.25;;;22.60;81.90;;;;;;5006477;28;20100;-38
2022/07/29 10:39:40;;;;;;;4.00;1.10;;;22.50;81.20;;;;;;5008501;28;20054;-38
2022/07/29 10:42:24;;;;;;;4.25;1.40;;;22.60;81.40;;;;;;5008046;28;20117;-38
2022/07/29 10:44:50;;;;;;;4.30;1.05;;;22.80;80.80;;;;;;5007899;28;20117;-38
2022/07/29 10:47:26;;;;;;;5.90;1.20;;;22.80;80.30;;;;;;5008215;28;20041;-38
2022/07/29 10:50:05;;;;;;;2.83;1.45;;;22.70;77.80;;;;;;5007993;28;20050;-37
2022/07/29 10:52:52;;;;;;;5.90;1.30;;;22.70;78.60;;;;;;5007446;28;20076;-38
2022/07/29 10:55:49;;;;;;;4.25;1.48;;;22.70;78.60;;;;;;5007681;28;20376;-37
2022/07/29 10:58:23;;;;;;;5.13;0.95;;;22.60;78.50;;;;;;5002156;28;20056;-38
2022/07/29 11:00:54;;;;;;;6.38;1.60;;;22.40;79.50;;;;;;5007183;28;20045;-38
2022/07/29 11:03:45;;;;;;;6.50;1.58;;;22.20;79.10;;;;;;5007709;28;20464;-38
2022/07/29 11:06:11;;;;;;;5.55;1.23;;;22.00;78.30;;;;;;5007940;28;20049;-38
2022/07/29 11:08:37;;;;;;;4.10;1.20;;;21.80;79.70;;;;;;5006213;28;20050;-42
2022/07/29 11:11:18;;;;;;;5.57;1.95;;;21.70;80.20;;;;;;4999439;28;20070;-41
2022/07/29 11:13:46;;;;;;;4.90;1.37;;;21.50;79.50;;;;;;5004493;28;20740;-39
2022/07/29 11:16:12;;;;;;;4.65;1.17;;;21.30;80.90;;;;;;5004217;28;20132;-39
2022/07/29 11:19:12;;;;;;;4.38;0.95;;;21.20;81.90;;;;;;5003495;28;20042;-38
2022/07/29 11:21:43;;;;;;;3.38;1.10;;;21.10;84.20;;;;;;5006380;28;20148;-37
2022/07/29 11:24:13;;;;;;;5.32;1.08;;;21.00;83.90;;;;;;5006356;28;20492;-38
2022/07/29 11:26:39;;;;;;;3.53;1.35;;;21.00;84.60;;;;;;5006336;28;20049;-39
2022/07/29 11:29:17;;;;;;;4.60;1.48;;;19.80;84.70;;;;;;5006126;28;20317;-39
2022/07/29 11:31:51;;;;;;;4.82;1.40;;;20.90;85.50;;;;;;5005394;28;20050;-40
2022/07/29 11:34:19;;;;;;;12.20;1.55;;;20.90;85.70;;;;;;5006322;28;20054;-41
2022/07/29 11:37:06;;;;;;;4.55;1.05;;;20.90;85.60;;;;;;5006131;28;20103;-40
2022/07/29 11:39:33;;;;;;;4.32;1.33;;;22.40;85.20;;;;;;5006178;28;20046;-42
2022/07/29 11:42:20;;;;;;;6.43;1.73;;;20.90;85.50;;;;;;5005989;28;20034;-39
2022/07/29 11:45:35;;;;;;;5.88;1.70;;;21.00;84.70;;;;;;5005402;28;20046;-38
2022/07/29 11:48:01;;;;;;;7.15;1.40;;;21.00;86.10;;;;;;5014023;28;20054;-38
2022/07/29 11:50:37;;;;;;;6.43;1.40;;;21.10;85.20;;;;;;5006231;28;20037;-45
2022/07/29 11:53:11;;;;;;;4.13;1.17;;;21.10;85.80;;;;;;5005513;28;20858;-41
2022/07/29 11:55:39;;;;;;;7.18;1.27;;;21.20;87.00;;;;;;5005940;28;20553;-40
2022/07/29 11:58:05;;;;;;;7.13;1.65;;;20.80;85.80;;;;;;5006684;28;20038;-43
2022/07/29 12:00:37;;;;;;;8.35;1.50;;;21.60;85.70;;;;;;5007065;28;20439;-40
2022/07/29 12:03:06;;;;;;;5.07;1.85;;;21.80;86.40;;;;;;5006433;28;20084;-41
2022/07/29 12:05:41;;;;;;;3.42;1.40;;;21.90;84.80;;;;;;5006413;28;20054;-40
2022/07/29 12:08:08;;;;;;;5.30;1.48;;;22.10;84.60;;;;;;5006534;28;20125;-41
2022/07/29 12:10:34;;;;;;;4.55;1.67;;;22.20;84.30;;;;;;5007165;28;20966;-42
2022/07/29 12:12:59;;;;;;;4.35;1.48;;;22.20;82.50;;;;;;5006516;28;20046;-40
2022/07/29 12:15:26;;;;;;;5.93;2.13;;;22.30;81.80;;;;;;5006400;28;20045;-42
2022/07/29 12:17:52;;;;;;;3.17;0.88;;;22.40;81.60;;;;;;5006506;28;20061;-45
2022/07/29 12:20:29;;;;;;;6.20;1.17;;;22.60;81.60;;;;;;5006761;28;20108;-41
2022/07/29 12:22:55;;;;;;;5.40;1.17;;;22.90;80.90;;;;;;5007080;28;20049;-41
2022/07/29 12:25:23;;;;;;;5.53;1.45;;;23.10;80.60;;;;;;5005053;28;20403;-37
2022/07/29 12:28:09;;;;;;;7.47;1.88;;;23.20;79.00;;;;;;5006547;28;20060;-39
2022/07/29 12:30:44;;;;;;;3.60;1.05;;;23.40;77.80;;;;;;5005200;28;20050;-41
2022/07/29 12:33:17;;;;;;;5.32;1.40;;;23.50;77.10;;;;;;5006079;28;20037;-41
2022/07/29 12:35:55;;;;;;;4.45;1.75;;;23.70;76.30;;;;;;5006786;28;20107;-37
2022/07/29 12:38:21;;;;;;;4.93;1.58;;;23.70;76.70;;;;;;5008096;28;20042;-37
2022/07/29 12:40:48;;;;;;;4.00;1.15;;;23.60;77.70;;;;;;5007739;28;20069;-37
2022/07/29 12:43:17;;;;;;;3.90;1.38;;;23.60;77.50;;;;;;5006623;28;20034;-38
2022/07/29 12:45:46;;;;;;;5.38;1.50;;;23.50;78.10;;;;;;5006750;28;20042;-37
2022/07/29 12:48:13;;;;;;;6.93;1.75;;;23.30;78.50;;;;;;5007063;28;20038;-37
2022/07/29 12:50:58;;;;;;;7.13;1.55;;;23.10;78.60;;;;;;5006827;28;20101;-37
2022/07/29 12:53:25;;;;;;;4.68;1.67;;;23.00;80.10;;;;;;5006650;28;20053;-37
2022/07/29 12:55:52;;;;;;;4.75;1.30;;;22.80;79.70;;;;;;5006233;28;20060;-37
2022/07/29 12:58:39;;;;;;;6.72;2.22;;;22.70;80.00;;;;;;5009299;28;20042;-37
2022/07/29 13:01:07;;;;;;;3.70;1.50;;;22.60;81.00;;;;;;5008658;28;20429;-37
2022/07/29 13:03:49;;;;;;;5.18;1.48;;;22.60;81.60;;;;;;5009955;28;20046;-37
2022/07/29 13:06:36;;;;;;;4.68;1.73;;;22.60;81.10;;;;;;5009146;28;20518;-37